Latest Weather Observations for Giles*

IDW60801

Issued at 6:03 pm WST Monday 5 December 2016 (issued every 30 minutes, with the page automatically refreshed every 10 minutes)

About weather observations | Map of weather stations | Latest weather observations for WA | Other Formats
Station Details ID: 013017 Name: GILES METEOROLOGICAL OFFICE Lat: -25.03 Lon: 128.30 Height: 598.0 m
Data from the previous 72 hours. | See also: Recent months at Giles*

* Giles observations are collected in the South Australia time zone, which includes daylight saving in the summer period. Therefore, Rain since 9am value is with respect to South Australia local time.

Date/Time
WST
Temp
°C
App
Temp
°C
Dew
Point
°C
Rel
Hum
%
Delta-T
°C
Wind Press
QNH
hPa
Press
MSL
hPa
Rain since
9am
mm
Dir  Spd
km/h
Gust
km/h
Spd
kts
Gust
kts
05/06:00pm 20.6 19.1 17.6 83 1.9 E 22 32 12 17 1013.6 1009.1 1.4
05/05:30pm 20.9 19.1 17.9 83 1.9 ESE 24 33 13 18 1013.5 1009.0 1.4
05/05:00pm 21.2 20.1 17.7 80 2.2 SE 20 28 11 15 1014.0 1009.4 1.4
05/04:30pm 21.0 19.8 17.5 80 2.2 SE 20 24 11 13 1014.0 1009.4 1.4
05/04:00pm 21.2 21.2 18.9 87 1.5 SE 17 22 9 12 1013.9 1009.3 1.4
05/03:30pm 21.8 22.1 19.7 88 1.4 SE 17 22 9 12 1013.8 1009.2 1.4
05/03:00pm 22.4 22.2 20.6 89 1.2 SSE 22 30 12 16 1013.4 1008.9 1.4
05/02:30pm 22.5 23.5 19.4 82 2.0 SSE 13 17 7 9 1013.8 1009.2 1.4
05/02:00pm 22.2 22.2 19.8 86 1.6 SSE 19 24 10 13 1013.9 1009.3 1.4
05/01:30pm 22.4 23.8 20.4 88 1.3 SW 13 20 7 11 1014.5 1009.9 1.2
05/01:00pm 24.4 24.4 18.9 71 3.6 SW 17 26 9 14 1014.2 1009.6 0.4
05/12:30pm 24.7 24.8 19.9 74 3.2 SW 19 26 10 14 1013.9 1009.3 0.4
05/12:00pm 24.7 26.3 20.0 75 3.1 WSW 11 19 6 10 1014.0 1009.4 0.4
05/11:30am 24.5 26.4 20.6 79 2.6 WSW 11 17 6 9 1013.8 1009.2 0.4
05/11:00am 24.1 25.6 20.5 80 2.4 NNW 13 22 7 12 1014.5 1009.9 0.2
05/10:30am 23.8 24.2 20.7 83 2.1 N 19 24 10 13 1014.7 1010.2 0.2
05/10:00am 23.7 23.4 19.6 78 2.7 N 20 28 11 15 1014.7 1010.2 0.2
05/09:30am 24.6 24.0 18.9 70 3.7 N 20 32 11 17 1014.6 1010.0 0.0
05/09:00am 24.2 23.2 18.8 72 3.5 N 22 32 12 17 1014.3 1009.7 0.0
05/08:30am 23.9 23.2 18.7 72 3.4 N 20 32 11 17 1014.4 1009.8 0.0
05/08:00am 23.5 22.0 18.6 74 3.2 N 24 39 13 21 1014.2 1009.6 0.0
05/07:30am 23.3 21.4 18.5 74 3.1 N 26 37 14 20 1014.4 1009.8 0.0
05/07:00am 23.4 22.5 18.1 72 3.4 N 20 32 11 17 1014.0 1009.4 0.0
05/06:30am 22.7 20.7 18.2 76 2.9 NE 26 44 14 24 1013.4 1008.9 5.2
05/06:00am 23.2 21.9 18.1 73 3.3 NNE 22 33 12 18 1013.2 1008.7 5.2
05/05:30am 23.2 22.8 18.1 73 3.3 NNE 17 28 9 15 1012.6 1008.0 5.2
05/05:00am 22.9 24.6 18.1 74 3.1 NE 6 9 3 5 1011.8 1007.3 5.2
05/04:30am 22.1 23.8 18.4 79 2.4 E 7 15 4 8 1011.2 1006.6 5.2
05/04:00am 24.0 23.3 17.4 66 4.2 ENE 17 28 9 15 1010.8 1006.2 5.2
05/03:30am 24.1 23.5 17.5 66 4.2 ENE 17 30 9 16 1010.6 1006.0 5.2
05/03:00am 24.1 23.6 17.7 67 4.1 NE 17 24 9 13 1010.8 1006.2 5.2
05/02:30am 24.0 21.4 17.8 68 4.0 NE 28 39 15 21 1010.3 1005.7 5.2
05/02:00am 24.5 23.5 17.5 65 4.5 NE 19 32 10 17 1010.0 1005.4 5.2
05/01:30am 23.9 22.9 17.5 67 4.1 E 19 30 10 16 1009.9 1005.3 5.2
05/01:00am 24.1 20.9 16.3 61 4.9 ENE 28 41 15 22 1009.7 1005.1 5.2
05/12:30am 23.9 22.2 17.1 65 4.3 ENE 22 33 12 18 1009.9 1005.3 5.2
05/12:00am 23.4 21.2 17.8 71 3.6 ENE 26 39 14 21 1010.2 1005.6 5.2
 
Date/Time
WST
Temp
°C
App
Temp
°C
Dew
Point
°C
Rel
Hum
%
Delta-T
°C
Wind Press
QNH
hPa
Press
MSL
hPa
Rain since
9am
mm
Dir  Spd
km/h
Gust
km/h
Spd
kts
Gust
kts
04/11:30pm 23.3 20.7 17.7 71 3.6 ENE 28 35 15 19 1011.2 1006.6 5.2
04/11:00pm 22.6 22.8 19.4 82 2.1 E 17 24 9 13 1011.8 1007.3 5.2
04/10:30pm 22.9 22.5 19.4 80 2.3 NE 20 28 11 15 1012.5 1007.9 5.2
04/10:00pm 22.8 21.0 19.6 82 2.1 E 28 39 15 21 1012.4 1007.8 5.0
04/09:30pm 22.9 21.4 18.6 77 2.8 SSE 24 33 13 18 1010.9 1006.3 5.0
04/09:27pm 22.9 21.1 18.7 77 2.7 SSE 26 33 14 18 1010.8 1006.2 5.0
04/09:00pm 23.2 24.4 20.0 82 2.1 WSW 13 17 7 9 1012.8 1008.2 4.8
04/08:30pm 22.8 22.3 19.0 79 2.5 S 20 30 11 16 1011.5 1006.9 4.8
04/08:00pm 22.0 18.8 18.7 81 2.1 SW 33 54 18 29 1012.6 1008.0 3.4
04/07:51pm 26.3 24.1 16.9 56 6.0 SW 24 54 13 29 1011.8 1007.3 1.4
04/07:47pm 24.9 25.2 18.8 69 4.0 E 15 30 8 16 1011.0 1006.4 1.4
04/07:30pm 26.7 23.6 15.7 51 6.9 E 26 35 14 19 1009.0 1004.4 1.2
04/07:00pm 27.8 24.5 14.1 43 8.4 E 24 32 13 17 1009.2 1004.6 1.2
04/06:30pm 28.0 26.3 14.6 44 8.3 E 17 20 9 11 1008.8 1004.2 1.2
04/06:00pm 29.0 28.4 14.5 41 9.0 SE 11 15 6 8 1008.5 1003.8 1.2
04/05:30pm 30.9 28.6 11.7 30 11.5 SSE 15 22 8 12 1008.6 1004.0 1.2
04/05:00pm 30.0 27.0 13.6 36 10.1 SSE 22 37 12 20 1008.5 1003.8 1.2
04/04:30pm 31.3 25.5 11.6 29 11.8 SW 33 50 18 27 1007.7 1003.1 1.0
04/04:08pm 30.8 27.1 12.7 33 11.0 WNW 24 48 13 26 1007.9 1003.3 1.0
04/04:00pm 35.4 31.9 12.1 24 14.3 NNW 22 39 12 21 1006.8 1002.1 1.0
04/03:30pm 33.0 30.9 13.5 30 12.1 NNE 17 32 9 17 1006.7 1002.0 1.0
04/03:16pm 30.2 23.2 14.3 38 9.9 N 44 78 24 42 1007.1 1002.5 1.0
04/03:13pm 31.2 25.5 16.2 40 9.6 NNW 41 78 22 42 1006.8 1002.1 0.8
04/03:00pm 37.0 30.7 8.8 18 16.6 NNW 32 43 17 23 1006.9 1002.2 0.8
04/02:30pm 37.8 33.0 8.9 17 17.0 NNW 24 39 13 21 1007.1 1002.5 0.8
04/02:00pm 37.6 33.3 9.3 18 16.8 WNW 22 37 12 20 1007.6 1003.0 0.8
04/01:30pm 38.0 33.5 10.1 18 16.8 NW 24 37 13 20 1007.9 1003.3 0.8
04/01:00pm 38.1 33.4 9.1 17 17.2 WNW 24 41 13 22 1008.3 1003.7 0.8
04/12:30pm 36.3 31.7 9.7 20 15.8 WNW 24 35 13 19 1009.0 1004.4 0.8
04/12:00pm 36.0 31.6 10.3 21 15.4 NW 24 48 13 26 1009.5 1004.9 0.8
04/11:30am 35.7 32.2 10.8 22 15.0 NNW 20 33 11 18 1010.3 1005.7 0.8
04/11:00am 34.5 30.9 13.0 27 13.3 N 24 35 13 19 1010.6 1006.0 0.8
04/10:30am 33.5 28.5 13.5 29 12.4 N 32 44 17 24 1011.1 1006.5 0.4
04/10:00am 30.5 27.4 14.4 37 10.0 N 24 35 13 19 1011.7 1007.2 0.4
04/09:30am 29.2 25.5 16.0 44 8.4 NNW 30 41 16 22 1012.0 1007.4 0.4
04/09:00am 31.1 26.8 15.5 39 9.9 NNW 32 50 17 27 1012.0 1007.4 0.0
04/08:59am 30.9 26.7 15.8 40 9.6 NNW 32 50 17 27 1012.0 1007.4 0.0
04/08:30am 32.3 27.4 14.4 33 11.2 N 33 44 18 24 1011.6 1007.1 0.0
04/08:00am 30.0 25.3 14.8 39 9.5 N 33 43 18 23 1011.8 1007.3 0.0
04/07:30am 30.2 25.4 14.7 39 9.7 N 33 48 18 26 1011.6 1007.1 0.0
04/07:00am 28.6 22.8 15.0 43 8.5 N 39 54 21 29 1011.5 1006.9 0.0
04/06:48am 28.6 23.7 15.4 44 8.3 N 35 54 19 29 1011.5 1006.9 0.0
04/06:30am 27.6 23.3 15.9 49 7.4 N 33 46 18 25 1011.3 1006.7 0.2
04/06:00am 26.3 21.7 16.0 53 6.5 N 35 46 19 25 1011.2 1006.6 0.2
04/05:30am 25.3 20.6 15.9 56 5.9 N 35 48 19 26 1011.2 1006.6 0.2
04/05:00am 25.0 21.3 15.9 57 5.7 N 30 41 16 22 1011.1 1006.5 0.2
04/04:30am 24.9 20.8 15.9 57 5.6 N 32 43 17 23 1010.8 1006.2 0.2
04/04:00am 25.1 21.5 16.2 57 5.6 N 30 43 16 23 1010.6 1006.0 0.2
04/03:30am 25.4 22.2 16.4 57 5.7 N 28 39 15 21 1010.6 1006.0 0.2
04/03:00am 26.0 22.7 16.0 54 6.3 N 28 37 15 20 1010.5 1005.9 0.2
04/02:30am 26.6 23.0 15.2 49 7.1 N 28 41 15 22 1010.3 1005.7 0.2
04/02:11am 27.2 22.7 13.7 43 8.2 N 30 48 16 26 1010.0 1005.4 0.2
04/02:00am 27.6 23.2 12.8 40 8.9 NNE 28 44 15 24 1009.9 1005.3 0.2
04/01:30am 28.3 24.4 12.0 36 9.7 N 24 33 13 18 1009.8 1005.2 0.2
04/01:00am 28.0 24.9 12.3 37 9.4 N 20 30 11 16 1009.8 1005.2 0.2
04/12:30am 28.0 24.8 12.0 37 9.5 N 20 28 11 15 1010.2 1005.6 0.2
04/12:00am 28.4 24.8 11.9 36 9.8 N 22 33 12 18 1010.6 1006.0 0.2
 
Date/Time
WST
Temp
°C
App
Temp
°C
Dew
Point
°C
Rel
Hum
%
Delta-T
°C
Wind Press
QNH
hPa
Press
MSL
hPa
Rain since
9am
mm
Dir  Spd
km/h
Gust
km/h
Spd
kts
Gust
kts
03/11:30pm 28.9 25.3 11.7 34 10.2 N 22 30 12 16 1011.0 1006.4 0.2
03/11:00pm 29.1 26.0 11.6 33 10.4 N 19 24 10 13 1011.2 1006.6 0.2
03/10:30pm 28.7 26.5 12.1 35 9.9 N 15 19 8 10 1011.4 1006.8 0.2
03/10:00pm 29.0 26.5 12.3 35 10.0 NNE 17 22 9 12 1011.6 1007.1 0.2
03/09:30pm 28.1 26.4 12.4 37 9.4 N 13 15 7 8 1011.6 1007.1 0.2
03/09:00pm 28.5 26.4 12.5 37 9.6 N 15 17 8 9 1011.3 1006.7 0.2
03/08:30pm 28.2 27.1 13.2 39 9.1 N 11 13 6 7 1011.0 1006.4 0.2
03/08:00pm 28.4 27.4 13.3 39 9.2 N 11 15 6 8 1010.8 1006.2 0.2
03/07:30pm 29.7 27.8 13.1 36 10.1 NNW 15 19 8 10 1010.4 1005.8 0.2
03/07:00pm 29.4 27.7 12.5 35 10.2 NNW 13 17 7 9 1010.2 1005.6 0.2
03/06:30pm 29.3 28.9 13.0 36 9.9 NNW 7 11 4 6 1009.8 1005.2 0.2
03/06:00pm 30.9 30.0 12.6 32 11.1 NW 9 13 5 7 1009.6 1005.0 0.2
03/05:30pm 31.7 28.6 11.7 29 12.0 NNW 19 24 10 13 1009.6 1005.0 0.2
03/05:00pm 31.9 27.5 11.6 28 12.2 NW 26 37 14 20 1009.6 1005.0 0.2
03/04:30pm 32.0 27.5 11.5 28 12.3 NW 26 41 14 22 1009.6 1005.0 0.2
03/04:00pm 32.1 28.8 11.7 28 12.3 NNW 20 35 11 19 1009.7 1005.1 0.2
03/03:30pm 32.0 28.8 13.1 31 11.6 NNE 22 35 12 19 1010.3 1005.7 0.2
03/03:00pm 30.1 26.6 13.3 35 10.3 N 24 33 13 18 1010.7 1006.1 0.2
03/02:30pm 30.8 26.5 13.1 34 10.8 N 28 43 15 23 1011.1 1006.5 0.2
03/02:00pm 29.6 26.4 13.2 36 10.0 NNE 22 37 12 20 1011.7 1007.2 0.2
03/01:30pm 30.2 26.3 13.2 35 10.4 NNE 26 33 14 18 1011.8 1007.3 0.2
03/01:00pm 30.1 25.3 12.8 34 10.5 N 30 41 16 22 1012.2 1007.6 0.2
03/12:30pm 30.1 26.6 13.5 36 10.2 NNE 24 39 13 21 1012.7 1008.1 0.2
03/12:00pm 30.2 25.3 13.6 36 10.2 NNE 32 43 17 23 1013.0 1008.4 0.2
03/11:38am 28.7 25.6 12.1 35 9.9 NE 20 48 11 26 1012.9 1008.3 0.2
03/11:30am 27.6 26.3 15.8 48 7.4 ENE 17 26 9 14 1012.9 1008.3 0.0
03/11:00am 27.1 24.7 15.4 48 7.3 ENE 22 33 12 18 1012.8 1008.2 0.0
03/10:30am 25.5 23.8 15.7 54 6.1 ENE 19 28 10 15 1013.9 1009.3 0.0
03/10:00am 26.2 25.1 15.2 50 6.8 NE 15 20 8 11 1014.2 1009.6 0.0
03/09:30am 24.8 24.5 16.5 60 5.2 ENE 13 20 7 11 1014.6 1010.0 0.0
03/09:00am 23.9 23.2 17.3 66 4.2 NNE 17 20 9 11 1014.7 1010.2 0.0
03/08:30am 23.9 25.4 17.5 67 4.1 N 6 11 3 6 1014.9 1010.4 0.0
03/08:00am 23.5 25.7 17.5 69 3.8 N 2 6 1 3 1015.0 1010.5 0.0
03/07:30am 23.3 26.0 17.8 71 3.5 CALM 0 0 0 0 1015.0 1010.5 0.0
03/07:00am 23.0 24.4 17.3 70 3.6 NNW 6 7 3 4 1015.0 1010.5 0.0
03/06:30am 22.9 24.7 18.7 77 2.7 NNW 7 11 4 6 1015.0 1010.5 0.4
03/06:00am 23.0 24.5 17.7 72 3.4 WNW 6 11 3 6 1014.7 1010.2 0.4
03/05:30am 23.1 23.4 16.9 68 3.9 WNW 11 17 6 9 1014.3 1009.7 0.4
03/05:00am 23.9 23.5 15.3 58 5.3 NW 11 15 6 8 1014.0 1009.4 0.4
03/04:30am 24.4 23.7 14.2 53 6.2 WNW 11 17 6 9 1013.2 1008.7 0.4
03/04:00am 25.1 23.4 12.4 45 7.5 NW 13 15 7 8 1013.0 1008.4 0.4
03/03:30am 25.2 24.3 12.7 45 7.4 NNW 9 13 5 7 1012.7 1008.1 0.4
03/03:00am 26.2 25.2 12.2 41 8.3 NE 9 11 5 6 1012.5 1007.9 0.4
03/02:30am 26.1 25.3 11.8 41 8.4 NNE 7 7 4 4 1012.4 1007.8 0.4
03/02:00am 26.0 24.8 11.7 41 8.4 ENE 9 15 5 8 1012.2 1007.6 0.4
03/01:30am 25.7 24.5 11.7 41 8.2 E 9 11 5 6 1011.8 1007.3 0.4
03/01:00am 25.8 24.7 11.8 41 8.2 SE 9 13 5 7 1012.0 1007.4 0.4
03/12:30am 26.0 25.4 12.3 42 8.1 NE 7 9 4 5 1012.4 1007.8 0.4
03/12:00am 25.9 24.4 11.8 41 8.3 E 11 15 6 8 1011.7 1007.2 0.4
 
Date/Time
WST
Temp
°C
App
Temp
°C
Dew
Point
°C
Rel
Hum
%
Delta-T
°C
Wind Press
QNH
hPa
Press
MSL
hPa
Rain since
9am
mm
Dir  Spd
km/h
Gust
km/h
Spd
kts
Gust
kts
02/11:30pm 25.6 23.8 12.2 43 7.9 E 13 17 7 9 1012.5 1007.9 0.4
02/11:00pm 25.8 25.6 13.1 45 7.6 WNW 6 9 3 5 1012.6 1008.0 0.4
02/10:30pm 26.0 25.7 12.8 44 7.9 W 6 11 3 6 1012.7 1008.1 0.4
02/10:00pm 26.0 27.0 13.2 45 7.7 CALM 0 2 0 1 1012.7 1008.1 0.4
02/09:30pm 26.0 25.5 12.5 43 8.0 WSW 7 13 4 7 1012.7 1008.1 0.4
02/09:00pm 25.8 23.4 12.5 43 7.9 WSW 17 24 9 13 1012.7 1008.1 0.4
02/08:30pm 26.5 22.9 11.9 40 8.6 WSW 22 37 12 20 1012.6 1008.0 0.2
02/08:00pm 27.2 22.4 11.8 38 9.1 WSW 28 43 15 23 1012.6 1008.0 0.2
02/07:36pm 27.4 22.2 11.6 37 9.3 W 30 48 16 26 1012.7 1008.1 0.2
02/07:30pm 27.8 22.1 11.0 35 9.8 W 32 48 17 26 1012.6 1008.0 0.2
02/07:16pm 28.3 23.1 10.1 32 10.5 WSW 28 46 15 25 1011.8 1007.3 0.2
02/07:00pm 26.8 22.5 12.1 40 8.7 W 26 39 14 21 1012.1 1007.5 0.2
02/06:30pm 26.4 21.2 12.7 42 8.2 W 32 48 17 26 1011.3 1006.7 0.2
02/06:18pm 28.7 23.6 10.7 32 10.5 SW 28 63 15 34 1010.7 1006.1 0.2
02/06:00pm 29.6 24.8 10.4 30 11.2 SW 26 37 14 20 1009.5 1004.9 0.2
02/05:40pm 30.5 25.3 10.4 28 11.8 SW 28 46 15 25 1009.1 1004.5 0.2
02/05:30pm 31.3 28.8 8.3 24 13.1 NW 11 19 6 10 1008.8 1004.2 0.2
02/05:00pm 31.8 28.0 7.5 22 13.7 N 17 24 9 13 1007.9 1003.3 0.2
02/04:30pm 30.6 26.6 10.3 28 11.9 NE 22 32 12 17 1007.7 1003.1 0.2
02/04:00pm 30.6 27.2 11.2 30 11.5 NW 20 32 11 17 1009.5 1004.9 0.0
02/03:38pm 31.3 25.4 10.4 27 12.3 N 32 50 17 27 1008.8 1004.2 0.0

Other Formats:

Comma delimited format used in spreadsheet applications
http://www.bom.gov.au/fwo/IDW60801/IDW60801.94461.axf

JavaScript Object Notation format (JSON) in row-major order
http://www.bom.gov.au/fwo/IDW60801/IDW60801.94461.json